sensor_id;sensor_type;location;lat;lon;timestamp;P1;durP1;ratioP1;P2;durP2;ratioP2
45041;SDS011;30779;52.096;4.410;2022-07-23T00:01:59;3.97;;;1.92;;
45041;SDS011;30779;52.096;4.410;2022-07-23T00:04:59;4.07;;;1.98;;
45041;SDS011;30779;52.096;4.410;2022-07-23T00:08:00;3.90;;;1.65;;
45041;SDS011;30779;52.096;4.410;2022-07-23T00:11:01;1.73;;;1.52;;
45041;SDS011;30779;52.096;4.410;2022-07-23T00:14:01;4.13;;;2.15;;
45041;SDS011;30779;52.096;4.410;2022-07-23T00:17:02;2.38;;;1.60;;
45041;SDS011;30779;52.096;4.410;2022-07-23T00:20:03;3.92;;;1.80;;
45041;SDS011;30779;52.096;4.410;2022-07-23T00:23:04;2.50;;;1.92;;
45041;SDS011;30779;52.096;4.410;2022-07-23T00:26:04;4.22;;;1.80;;
45041;SDS011;30779;52.096;4.410;2022-07-23T00:29:07;5.20;;;2.15;;
45041;SDS011;30779;52.096;4.410;2022-07-23T00:32:08;3.40;;;1.83;;
45041;SDS011;30779;52.096;4.410;2022-07-23T00:35:08;3.85;;;2.20;;
45041;SDS011;30779;52.096;4.410;2022-07-23T00:38:10;5.50;;;1.90;;
45041;SDS011;30779;52.096;4.410;2022-07-23T00:41:11;3.60;;;1.88;;
45041;SDS011;30779;52.096;4.410;2022-07-23T00:44:15;5.53;;;1.85;;
45041;SDS011;30779;52.096;4.410;2022-07-23T00:47:17;2.72;;;2.53;;
45041;SDS011;30779;52.096;4.410;2022-07-23T00:50:17;2.67;;;1.88;;
45041;SDS011;30779;52.096;4.410;2022-07-23T00:53:18;4.88;;;1.95;;
45041;SDS011;30779;52.096;4.410;2022-07-23T00:56:20;2.67;;;1.83;;
45041;SDS011;30779;52.096;4.410;2022-07-23T00:59:20;2.17;;;1.90;;
45041;SDS011;30779;52.096;4.410;2022-07-23T01:02:21;3.42;;;1.90;;
45041;SDS011;30779;52.096;4.410;2022-07-23T01:05:22;3.72;;;2.22;;
45041;SDS011;30779;52.096;4.410;2022-07-23T01:08:23;4.05;;;2.10;;
45041;SDS011;30779;52.096;4.410;2022-07-23T01:11:23;3.00;;;2.10;;
45041;SDS011;30779;52.096;4.410;2022-07-23T01:14:25;2.50;;;1.90;;
45041;SDS011;30779;52.096;4.410;2022-07-23T01:17:26;2.75;;;2.10;;
45041;SDS011;30779;52.096;4.410;2022-07-23T01:20:27;3.88;;;2.33;;
45041;SDS011;30779;52.096;4.410;2022-07-23T01:23:28;6.22;;;2.10;;
45041;SDS011;30779;52.096;4.410;2022-07-23T01:26:29;3.35;;;1.95;;
45041;SDS011;30779;52.096;4.410;2022-07-23T01:29:29;4.68;;;1.90;;
45041;SDS011;30779;52.096;4.410;2022-07-23T01:32:30;3.05;;;1.90;;
45041;SDS011;30779;52.096;4.410;2022-07-23T01:35:31;3.03;;;2.30;;
45041;SDS011;30779;52.096;4.410;2022-07-23T01:38:31;3.13;;;2.25;;
45041;SDS011;30779;52.096;4.410;2022-07-23T01:41:33;6.50;;;2.58;;
45041;SDS011;30779;52.096;4.410;2022-07-23T01:44:34;2.03;;;1.80;;
45041;SDS011;30779;52.096;4.410;2022-07-23T01:47:34;3.55;;;2.13;;
45041;SDS011;30779;52.096;4.410;2022-07-23T01:50:35;3.47;;;1.70;;
45041;SDS011;30779;52.096;4.410;2022-07-23T01:53:36;3.88;;;2.35;;
45041;SDS011;30779;52.096;4.410;2022-07-23T01:56:36;3.58;;;2.08;;
45041;SDS011;30779;52.096;4.410;2022-07-23T01:59:37;3.78;;;2.33;;
45041;SDS011;30779;52.096;4.410;2022-07-23T02:02:39;3.72;;;2.28;;
45041;SDS011;30779;52.096;4.410;2022-07-23T02:05:39;5.65;;;2.25;;
45041;SDS011;30779;52.096;4.410;2022-07-23T02:08:40;2.95;;;2.22;;
45041;SDS011;30779;52.096;4.410;2022-07-23T02:11:41;8.88;;;3.03;;
45041;SDS011;30779;52.096;4.410;2022-07-23T02:14:42;4.63;;;2.50;;
45041;SDS011;30779;52.096;4.410;2022-07-23T02:17:42;3.90;;;2.45;;
45041;SDS011;30779;52.096;4.410;2022-07-23T02:20:43;6.90;;;2.72;;
45041;SDS011;30779;52.096;4.410;2022-07-23T02:23:44;3.63;;;2.58;;
45041;SDS011;30779;52.096;4.410;2022-07-23T02:26:45;4.07;;;2.88;;
45041;SDS011;30779;52.096;4.410;2022-07-23T02:29:45;3.45;;;2.50;;
45041;SDS011;30779;52.096;4.410;2022-07-23T02:32:46;2.83;;;2.22;;
45041;SDS011;30779;52.096;4.410;2022-07-23T02:35:47;3.25;;;2.55;;
45041;SDS011;30779;52.096;4.410;2022-07-23T02:38:47;3.92;;;2.55;;
45041;SDS011;30779;52.096;4.410;2022-07-23T02:41:48;3.42;;;2.30;;
45041;SDS011;30779;52.096;4.410;2022-07-23T02:44:49;4.50;;;2.40;;
45041;SDS011;30779;52.096;4.410;2022-07-23T02:47:50;2.97;;;2.47;;
45041;SDS011;30779;52.096;4.410;2022-07-23T02:50:51;5.03;;;2.92;;
45041;SDS011;30779;52.096;4.410;2022-07-23T02:53:52;4.15;;;2.33;;
45041;SDS011;30779;52.096;4.410;2022-07-23T02:56:53;2.80;;;2.17;;
45041;SDS011;30779;52.096;4.410;2022-07-23T02:59:53;4.40;;;3.40;;
45041;SDS011;30779;52.096;4.410;2022-07-23T03:02:54;4.28;;;3.20;;
45041;SDS011;30779;52.096;4.410;2022-07-23T03:05:54;3.90;;;3.42;;
45041;SDS011;30779;52.096;4.410;2022-07-23T03:08:55;5.78;;;2.95;;
45041;SDS011;30779;52.096;4.410;2022-07-23T03:11:56;5.03;;;2.50;;
45041;SDS011;30779;52.096;4.410;2022-07-23T03:14:56;3.90;;;3.15;;
45041;SDS011;30779;52.096;4.410;2022-07-23T03:17:57;5.18;;;3.10;;
45041;SDS011;30779;52.096;4.410;2022-07-23T03:20:57;5.13;;;2.95;;
45041;SDS011;30779;52.096;4.410;2022-07-23T03:23:58;7.00;;;2.67;;
45041;SDS011;30779;52.096;4.410;2022-07-23T03:26:59;3.40;;;3.10;;
45041;SDS011;30779;52.096;4.410;2022-07-23T03:29:59;4.97;;;2.95;;
45041;SDS011;30779;52.096;4.410;2022-07-23T03:33:00;2.60;;;2.40;;
45041;SDS011;30779;52.096;4.410;2022-07-23T03:36:01;2.67;;;2.40;;
45041;SDS011;30779;52.096;4.410;2022-07-23T03:39:01;6.38;;;2.15;;
45041;SDS011;30779;52.096;4.410;2022-07-23T03:42:03;3.63;;;2.13;;
45041;SDS011;30779;52.096;4.410;2022-07-23T03:45:04;2.78;;;2.45;;
45041;SDS011;30779;52.096;4.410;2022-07-23T03:48:05;2.92;;;2.35;;
45041;SDS011;30779;52.096;4.410;2022-07-23T03:51:06;4.65;;;2.35;;
45041;SDS011;30779;52.096;4.410;2022-07-23T03:54:07;3.17;;;2.13;;
45041;SDS011;30779;52.096;4.410;2022-07-23T03:57:08;5.00;;;2.47;;
45041;SDS011;30779;52.096;4.410;2022-07-23T04:00:09;4.28;;;2.20;;
45041;SDS011;30779;52.096;4.410;2022-07-23T04:03:11;3.63;;;2.30;;
45041;SDS011;30779;52.096;4.410;2022-07-23T04:06:12;4.78;;;2.55;;
45041;SDS011;30779;52.096;4.410;2022-07-23T04:09:13;3.95;;;2.60;;
45041;SDS011;30779;52.096;4.410;2022-07-23T04:12:14;6.45;;;2.85;;
45041;SDS011;30779;52.096;4.410;2022-07-23T04:15:15;3.20;;;2.60;;
45041;SDS011;30779;52.096;4.410;2022-07-23T04:18:16;3.85;;;2.30;;
45041;SDS011;30779;52.096;4.410;2022-07-23T04:21:17;3.60;;;2.80;;
45041;SDS011;30779;52.096;4.410;2022-07-23T04:24:18;5.25;;;2.40;;
45041;SDS011;30779;52.096;4.410;2022-07-23T04:27:18;4.28;;;2.45;;
45041;SDS011;30779;52.096;4.410;2022-07-23T04:30:19;3.63;;;2.65;;
45041;SDS011;30779;52.096;4.410;2022-07-23T04:33:20;4.35;;;2.70;;
45041;SDS011;30779;52.096;4.410;2022-07-23T04:36:20;3.58;;;2.53;;
45041;SDS011;30779;52.096;4.410;2022-07-23T04:39:22;3.88;;;2.65;;
45041;SDS011;30779;52.096;4.410;2022-07-23T04:42:23;5.28;;;2.08;;
45041;SDS011;30779;52.096;4.410;2022-07-23T04:45:23;3.75;;;2.60;;
45041;SDS011;30779;52.096;4.410;2022-07-23T04:48:25;4.22;;;2.35;;
45041;SDS011;30779;52.096;4.410;2022-07-23T04:51:25;5.78;;;2.95;;
45041;SDS011;30779;52.096;4.410;2022-07-23T04:54:26;3.55;;;3.05;;
45041;SDS011;30779;52.096;4.410;2022-07-23T04:57:26;2.75;;;2.20;;
45041;SDS011;30779;52.096;4.410;2022-07-23T05:00:27;3.65;;;2.45;;
45041;SDS011;30779;52.096;4.410;2022-07-23T05:03:28;3.63;;;2.45;;
45041;SDS011;30779;52.096;4.410;2022-07-23T05:06:28;4.78;;;2.78;;
45041;SDS011;30779;52.096;4.410;2022-07-23T05:09:29;4.47;;;2.67;;
45041;SDS011;30779;52.096;4.410;2022-07-23T05:12:30;3.67;;;2.88;;
45041;SDS011;30779;52.096;4.410;2022-07-23T05:15:30;3.50;;;2.70;;
45041;SDS011;30779;52.096;4.410;2022-07-23T05:18:31;5.55;;;3.05;;
45041;SDS011;30779;52.096;4.410;2022-07-23T05:21:32;3.70;;;2.70;;
45041;SDS011;30779;52.096;4.410;2022-07-23T05:24:33;3.90;;;3.10;;
45041;SDS011;30779;52.096;4.410;2022-07-23T05:27:33;5.75;;;3.90;;
45041;SDS011;30779;52.096;4.410;2022-07-23T05:30:34;6.10;;;3.35;;
45041;SDS011;30779;52.096;4.410;2022-07-23T05:33:34;3.53;;;3.10;;
45041;SDS011;30779;52.096;4.410;2022-07-23T05:36:35;5.13;;;3.15;;
45041;SDS011;30779;52.096;4.410;2022-07-23T05:39:36;4.07;;;3.38;;
45041;SDS011;30779;52.096;4.410;2022-07-23T05:42:37;4.78;;;3.45;;
45041;SDS011;30779;52.096;4.410;2022-07-23T05:45:38;5.10;;;3.50;;
45041;SDS011;30779;52.096;4.410;2022-07-23T05:48:39;4.60;;;2.88;;
45041;SDS011;30779;52.096;4.410;2022-07-23T05:51:40;5.43;;;3.05;;
45041;SDS011;30779;52.096;4.410;2022-07-23T05:54:41;5.20;;;3.63;;
45041;SDS011;30779;52.096;4.410;2022-07-23T05:57:42;3.20;;;2.90;;
45041;SDS011;30779;52.096;4.410;2022-07-23T06:00:42;5.07;;;2.83;;
45041;SDS011;30779;52.096;4.410;2022-07-23T06:03:43;4.30;;;3.33;;
45041;SDS011;30779;52.096;4.410;2022-07-23T06:06:44;4.40;;;3.63;;
45041;SDS011;30779;52.096;4.410;2022-07-23T06:09:44;5.15;;;3.25;;
45041;SDS011;30779;52.096;4.410;2022-07-23T06:12:46;5.10;;;3.57;;
45041;SDS011;30779;52.096;4.410;2022-07-23T06:15:47;5.63;;;3.50;;
45041;SDS011;30779;52.096;4.410;2022-07-23T06:18:48;5.60;;;3.95;;
45041;SDS011;30779;52.096;4.410;2022-07-23T06:21:49;4.55;;;3.75;;
45041;SDS011;30779;52.096;4.410;2022-07-23T06:24:50;5.15;;;3.88;;
45041;SDS011;30779;52.096;4.410;2022-07-23T06:27:54;4.22;;;3.38;;
45041;SDS011;30779;52.096;4.410;2022-07-23T06:30:54;3.72;;;3.10;;
45041;SDS011;30779;52.096;4.410;2022-07-23T06:33:55;6.72;;;2.97;;
45041;SDS011;30779;52.096;4.410;2022-07-23T06:36:55;3.88;;;2.80;;
45041;SDS011;30779;52.096;4.410;2022-07-23T06:39:56;3.55;;;3.10;;
45041;SDS011;30779;52.096;4.410;2022-07-23T06:42:57;5.70;;;3.08;;
45041;SDS011;30779;52.096;4.410;2022-07-23T06:45:57;4.97;;;2.60;;
45041;SDS011;30779;52.096;4.410;2022-07-23T06:48:58;4.60;;;2.63;;
45041;SDS011;30779;52.096;4.410;2022-07-23T06:51:59;6.32;;;2.78;;
45041;SDS011;30779;52.096;4.410;2022-07-23T06:55:00;4.18;;;2.40;;
45041;SDS011;30779;52.096;4.410;2022-07-23T06:58:00;4.82;;;2.45;;
45041;SDS011;30779;52.096;4.410;2022-07-23T07:01:01;3.88;;;2.85;;
45041;SDS011;30779;52.096;4.410;2022-07-23T07:04:02;4.93;;;2.95;;
45041;SDS011;30779;52.096;4.410;2022-07-23T07:07:03;3.47;;;2.75;;
45041;SDS011;30779;52.096;4.410;2022-07-23T07:10:03;4.15;;;2.50;;
45041;SDS011;30779;52.096;4.410;2022-07-23T07:13:04;4.40;;;2.03;;
45041;SDS011;30779;52.096;4.410;2022-07-23T07:16:05;4.63;;;2.33;;
45041;SDS011;30779;52.096;4.410;2022-07-23T07:19:06;2.78;;;1.80;;
45041;SDS011;30779;52.096;4.410;2022-07-23T07:22:07;4.00;;;1.98;;
45041;SDS011;30779;52.096;4.410;2022-07-23T07:25:07;2.33;;;1.83;;
45041;SDS011;30779;52.096;4.410;2022-07-23T07:28:08;2.58;;;1.73;;
45041;SDS011;30779;52.096;4.410;2022-07-23T07:31:09;4.47;;;1.95;;
45041;SDS011;30779;52.096;4.410;2022-07-23T07:34:10;4.43;;;2.40;;
45041;SDS011;30779;52.096;4.410;2022-07-23T07:37:10;7.20;;;3.17;;
45041;SDS011;30779;52.096;4.410;2022-07-23T07:40:11;4.93;;;3.22;;
45041;SDS011;30779;52.096;4.410;2022-07-23T07:43:11;5.00;;;2.72;;
45041;SDS011;30779;52.096;4.410;2022-07-23T07:46:12;5.57;;;2.83;;
45041;SDS011;30779;52.096;4.410;2022-07-23T07:49:13;5.47;;;2.83;;
45041;SDS011;30779;52.096;4.410;2022-07-23T07:52:13;5.63;;;3.10;;
45041;SDS011;30779;52.096;4.410;2022-07-23T07:55:14;2.95;;;2.45;;
45041;SDS011;30779;52.096;4.410;2022-07-23T07:58:15;3.45;;;2.30;;
45041;SDS011;30779;52.096;4.410;2022-07-23T08:01:16;3.92;;;2.50;;
45041;SDS011;30779;52.096;4.410;2022-07-23T08:04:17;2.78;;;2.10;;
45041;SDS011;30779;52.096;4.410;2022-07-23T08:07:18;4.38;;;2.80;;
45041;SDS011;30779;52.096;4.410;2022-07-23T08:10:19;3.15;;;2.38;;
45041;SDS011;30779;52.096;4.410;2022-07-23T08:13:20;3.75;;;2.67;;
45041;SDS011;30779;52.096;4.410;2022-07-23T08:16:21;4.78;;;2.55;;
45041;SDS011;30779;52.096;4.410;2022-07-23T08:19:21;3.83;;;2.47;;
45041;SDS011;30779;52.096;4.410;2022-07-23T08:22:22;4.20;;;2.30;;
45041;SDS011;30779;52.096;4.410;2022-07-23T08:28:23;3.08;;;2.35;;
45041;SDS011;30779;52.096;4.410;2022-07-23T08:31:24;4.40;;;2.38;;
45041;SDS011;30779;52.096;4.410;2022-07-23T08:34:24;4.43;;;2.40;;
45041;SDS011;30779;52.096;4.410;2022-07-23T08:37:25;3.05;;;2.42;;
45041;SDS011;30779;52.096;4.410;2022-07-23T08:40:27;3.72;;;2.40;;
45041;SDS011;30779;52.096;4.410;2022-07-23T08:43:30;5.13;;;2.25;;
45041;SDS011;30779;52.096;4.410;2022-07-23T08:46:32;2.92;;;2.22;;
45041;SDS011;30779;52.096;4.410;2022-07-23T08:49:33;4.20;;;2.15;;
45041;SDS011;30779;52.096;4.410;2022-07-23T08:52:34;4.05;;;2.30;;
45041;SDS011;30779;52.096;4.410;2022-07-23T08:55:36;3.33;;;2.43;;
45041;SDS011;30779;52.096;4.410;2022-07-23T08:58:37;2.95;;;1.77;;
45041;SDS011;30779;52.096;4.410;2022-07-23T09:01:37;3.35;;;2.28;;
45041;SDS011;30779;52.096;4.410;2022-07-23T09:04:38;3.00;;;2.53;;
45041;SDS011;30779;52.096;4.410;2022-07-23T09:11:18;5.88;;;3.10;;
45041;SDS011;30779;52.096;4.410;2022-07-23T09:14:24;4.65;;;2.55;;
45041;SDS011;30779;52.096;4.410;2022-07-23T09:17:48;4.50;;;2.40;;
45041;SDS011;30779;52.096;4.410;2022-07-23T09:20:49;4.45;;;2.58;;
45041;SDS011;30779;52.096;4.410;2022-07-23T09:23:52;3.58;;;2.42;;
45041;SDS011;30779;52.096;4.410;2022-07-23T09:27:16;3.88;;;2.03;;
45041;SDS011;30779;52.096;4.410;2022-07-23T09:30:17;3.10;;;2.20;;
45041;SDS011;30779;52.096;4.410;2022-07-23T09:33:18;3.88;;;2.92;;
45041;SDS011;30779;52.096;4.410;2022-07-23T09:36:26;4.65;;;2.28;;
45041;SDS011;30779;52.096;4.410;2022-07-23T09:39:29;3.28;;;1.98;;
45041;SDS011;30779;52.096;4.410;2022-07-23T09:42:33;6.20;;;3.95;;
45041;SDS011;30779;52.096;4.410;2022-07-23T09:45:34;4.25;;;2.90;;
45041;SDS011;30779;52.096;4.410;2022-07-23T09:48:35;3.58;;;2.50;;
45041;SDS011;30779;52.096;4.410;2022-07-23T09:51:50;4.40;;;2.33;;
45041;SDS011;30779;52.096;4.410;2022-07-23T09:54:51;4.20;;;2.33;;
45041;SDS011;30779;52.096;4.410;2022-07-23T09:57:57;4.53;;;2.35;;
45041;SDS011;30779;52.096;4.410;2022-07-23T10:00:58;2.75;;;2.50;;
45041;SDS011;30779;52.096;4.410;2022-07-23T10:04:00;3.08;;;2.55;;
45041;SDS011;30779;52.096;4.410;2022-07-23T10:07:03;4.50;;;2.28;;
45041;SDS011;30779;52.096;4.410;2022-07-23T10:10:06;2.63;;;2.10;;
45041;SDS011;30779;52.096;4.410;2022-07-23T10:13:08;4.43;;;2.85;;
45041;SDS011;30779;52.096;4.410;2022-07-23T10:16:27;2.70;;;1.83;;
45041;SDS011;30779;52.096;4.410;2022-07-23T10:19:28;5.38;;;2.50;;
45041;SDS011;30779;52.096;4.410;2022-07-23T10:22:33;2.58;;;2.00;;
45041;SDS011;30779;52.096;4.410;2022-07-23T10:25:41;4.38;;;2.88;;
45041;SDS011;30779;52.096;4.410;2022-07-23T10:28:57;2.60;;;2.03;;
45041;SDS011;30779;52.096;4.410;2022-07-23T10:35:51;2.47;;;1.77;;
45041;SDS011;30779;52.096;4.410;2022-07-23T10:38:57;3.33;;;1.85;;
45041;SDS011;30779;52.096;4.410;2022-07-23T10:45:29;2.70;;;1.63;;
45041;SDS011;30779;52.096;4.410;2022-07-23T10:48:34;2.95;;;1.73;;
45041;SDS011;30779;52.096;4.410;2022-07-23T10:51:35;4.05;;;1.77;;
45041;SDS011;30779;52.096;4.410;2022-07-23T10:54:35;2.35;;;1.70;;
45041;SDS011;30779;52.096;4.410;2022-07-23T10:57:47;2.78;;;1.77;;
45041;SDS011;30779;52.096;4.410;2022-07-23T11:00:51;3.15;;;1.92;;
45041;SDS011;30779;52.096;4.410;2022-07-23T11:03:57;4.82;;;2.13;;
45041;SDS011;30779;52.096;4.410;2022-07-23T11:09:59;5.50;;;2.10;;
45041;SDS011;30779;52.096;4.410;2022-07-23T11:16:23;2.60;;;1.92;;
45041;SDS011;30779;52.096;4.410;2022-07-23T11:19:25;4.68;;;1.60;;
45041;SDS011;30779;52.096;4.410;2022-07-23T11:25:44;3.15;;;1.83;;
45041;SDS011;30779;52.096;4.410;2022-07-23T11:34:59;4.18;;;2.47;;
45041;SDS011;30779;52.096;4.410;2022-07-23T11:38:06;3.30;;;2.20;;
45041;SDS011;30779;52.096;4.410;2022-07-23T11:41:12;1.90;;;1.55;;
45041;SDS011;30779;52.096;4.410;2022-07-23T11:44:33;4.03;;;1.85;;
45041;SDS011;30779;52.096;4.410;2022-07-23T11:47:35;2.60;;;1.50;;
45041;SDS011;30779;52.096;4.410;2022-07-23T11:50:36;4.53;;;1.50;;
45041;SDS011;30779;52.096;4.410;2022-07-23T11:53:36;2.20;;;1.38;;
45041;SDS011;30779;52.096;4.410;2022-07-23T11:56:37;3.13;;;1.55;;
45041;SDS011;30779;52.096;4.410;2022-07-23T11:59:55;3.72;;;1.50;;
45041;SDS011;30779;52.096;4.410;2022-07-23T12:02:59;1.98;;;1.60;;
45041;SDS011;30779;52.096;4.410;2022-07-23T12:06:01;2.10;;;1.60;;
45041;SDS011;30779;52.096;4.410;2022-07-23T12:09:02;4.70;;;1.70;;
45041;SDS011;30779;52.096;4.410;2022-07-23T12:12:03;2.70;;;1.80;;
45041;SDS011;30779;52.096;4.410;2022-07-23T12:15:05;3.65;;;2.08;;
45041;SDS011;30779;52.096;4.410;2022-07-23T12:18:07;3.78;;;2.20;;
45041;SDS011;30779;52.096;4.410;2022-07-23T12:21:09;2.58;;;1.50;;
45041;SDS011;30779;52.096;4.410;2022-07-23T12:24:10;2.40;;;1.45;;
45041;SDS011;30779;52.096;4.410;2022-07-23T12:27:11;2.53;;;1.80;;
45041;SDS011;30779;52.096;4.410;2022-07-23T12:33:33;3.75;;;2.00;;
45041;SDS011;30779;52.096;4.410;2022-07-23T12:36:38;2.13;;;1.75;;
45041;SDS011;30779;52.096;4.410;2022-07-23T12:39:41;3.35;;;1.92;;
45041;SDS011;30779;52.096;4.410;2022-07-23T12:42:42;4.57;;;1.95;;
45041;SDS011;30779;52.096;4.410;2022-07-23T12:48:51;3.20;;;1.85;;
45041;SDS011;30779;52.096;4.410;2022-07-23T12:51:53;3.42;;;1.50;;
45041;SDS011;30779;52.096;4.410;2022-07-23T12:54:54;3.22;;;1.50;;
45041;SDS011;30779;52.096;4.410;2022-07-23T12:58:08;2.20;;;1.33;;
45041;SDS011;30779;52.096;4.410;2022-07-23T13:04:21;2.25;;;1.52;;
45041;SDS011;30779;52.096;4.410;2022-07-23T13:07:23;2.03;;;1.55;;
45041;SDS011;30779;52.096;4.410;2022-07-23T13:10:23;2.60;;;1.60;;
45041;SDS011;30779;52.096;4.410;2022-07-23T13:13:25;2.33;;;1.50;;
45041;SDS011;30779;52.096;4.410;2022-07-23T13:16:28;4.05;;;2.03;;
45041;SDS011;30779;52.096;4.410;2022-07-23T13:19:29;1.83;;;1.40;;
45041;SDS011;30779;52.096;4.410;2022-07-23T13:22:30;3.03;;;1.67;;
45041;SDS011;30779;52.096;4.410;2022-07-23T13:25:30;4.30;;;1.42;;
45041;SDS011;30779;52.096;4.410;2022-07-23T13:28:31;3.88;;;2.20;;
45041;SDS011;30779;52.096;4.410;2022-07-23T13:31:32;4.07;;;1.90;;
45041;SDS011;30779;52.096;4.410;2022-07-23T13:34:33;3.05;;;1.73;;
45041;SDS011;30779;52.096;4.410;2022-07-23T13:37:33;2.65;;;1.27;;
45041;SDS011;30779;52.096;4.410;2022-07-23T13:40:38;1.80;;;1.55;;
45041;SDS011;30779;52.096;4.410;2022-07-23T13:43:42;7.28;;;2.60;;
45041;SDS011;30779;52.096;4.410;2022-07-23T13:46:42;3.40;;;1.73;;
45041;SDS011;30779;52.096;4.410;2022-07-23T13:49:43;3.60;;;1.95;;
45041;SDS011;30779;52.096;4.410;2022-07-23T13:52:43;3.88;;;2.42;;
45041;SDS011;30779;52.096;4.410;2022-07-23T13:55:44;2.35;;;1.75;;
45041;SDS011;30779;52.096;4.410;2022-07-23T13:58:45;3.27;;;2.10;;
45041;SDS011;30779;52.096;4.410;2022-07-23T14:01:46;2.53;;;1.48;;
45041;SDS011;30779;52.096;4.410;2022-07-23T14:04:47;4.57;;;2.10;;
45041;SDS011;30779;52.096;4.410;2022-07-23T14:07:49;2.35;;;1.70;;
45041;SDS011;30779;52.096;4.410;2022-07-23T14:10:51;3.00;;;1.55;;
45041;SDS011;30779;52.096;4.410;2022-07-23T14:13:52;5.38;;;1.88;;
45041;SDS011;30779;52.096;4.410;2022-07-23T14:16:52;1.60;;;1.45;;
45041;SDS011;30779;52.096;4.410;2022-07-23T14:19:53;2.60;;;1.65;;
45041;SDS011;30779;52.096;4.410;2022-07-23T14:22:54;3.35;;;1.67;;
45041;SDS011;30779;52.096;4.410;2022-07-23T14:25:55;3.00;;;2.20;;
45041;SDS011;30779;52.096;4.410;2022-07-23T14:28:56;4.43;;;1.75;;
45041;SDS011;30779;52.096;4.410;2022-07-23T14:31:57;6.75;;;2.40;;
45041;SDS011;30779;52.096;4.410;2022-07-23T14:34:58;2.75;;;1.70;;
45041;SDS011;30779;52.096;4.410;2022-07-23T14:37:59;2.05;;;1.83;;
45041;SDS011;30779;52.096;4.410;2022-07-23T14:41:00;3.05;;;1.75;;
45041;SDS011;30779;52.096;4.410;2022-07-23T14:44:01;2.58;;;1.50;;
45041;SDS011;30779;52.096;4.410;2022-07-23T14:47:03;3.67;;;1.75;;
45041;SDS011;30779;52.096;4.410;2022-07-23T14:50:04;4.57;;;2.20;;
45041;SDS011;30779;52.096;4.410;2022-07-23T14:53:05;2.20;;;2.00;;
45041;SDS011;30779;52.096;4.410;2022-07-23T14:56:06;4.50;;;2.28;;
45041;SDS011;30779;52.096;4.410;2022-07-23T14:59:07;3.33;;;1.70;;
45041;SDS011;30779;52.096;4.410;2022-07-23T15:02:08;3.10;;;2.20;;
45041;SDS011;30779;52.096;4.410;2022-07-23T15:05:08;4.53;;;1.70;;
45041;SDS011;30779;52.096;4.410;2022-07-23T15:08:09;3.20;;;2.00;;
45041;SDS011;30779;52.096;4.410;2022-07-23T15:11:10;4.85;;;2.20;;
45041;SDS011;30779;52.096;4.410;2022-07-23T15:14:10;3.70;;;1.90;;
45041;SDS011;30779;52.096;4.410;2022-07-23T15:17:11;4.32;;;2.40;;
45041;SDS011;30779;52.096;4.410;2022-07-23T15:20:12;4.13;;;1.98;;
45041;SDS011;30779;52.096;4.410;2022-07-23T15:23:12;2.10;;;1.83;;
45041;SDS011;30779;52.096;4.410;2022-07-23T15:26:13;3.88;;;2.30;;
45041;SDS011;30779;52.096;4.410;2022-07-23T15:29:14;3.83;;;2.10;;
45041;SDS011;30779;52.096;4.410;2022-07-23T15:32:15;3.50;;;2.35;;
45041;SDS011;30779;52.096;4.410;2022-07-23T15:35:16;2.53;;;1.65;;
45041;SDS011;30779;52.096;4.410;2022-07-23T15:38:16;3.67;;;1.63;;
45041;SDS011;30779;52.096;4.410;2022-07-23T15:41:17;2.63;;;1.80;;
45041;SDS011;30779;52.096;4.410;2022-07-23T15:44:18;2.67;;;1.92;;
45041;SDS011;30779;52.096;4.410;2022-07-23T15:47:18;3.38;;;2.05;;
45041;SDS011;30779;52.096;4.410;2022-07-23T15:50:20;1.90;;;1.65;;
45041;SDS011;30779;52.096;4.410;2022-07-23T15:53:21;3.13;;;2.10;;
45041;SDS011;30779;52.096;4.410;2022-07-23T15:56:21;2.60;;;2.08;;
45041;SDS011;30779;52.096;4.410;2022-07-23T15:59:22;4.53;;;3.38;;
45041;SDS011;30779;52.096;4.410;2022-07-23T16:02:23;3.38;;;2.20;;
45041;SDS011;30779;52.096;4.410;2022-07-23T16:05:24;3.50;;;2.25;;
45041;SDS011;30779;52.096;4.410;2022-07-23T16:08:24;3.78;;;1.70;;
45041;SDS011;30779;52.096;4.410;2022-07-23T16:11:25;3.88;;;1.77;;
45041;SDS011;30779;52.096;4.410;2022-07-23T16:14:26;3.72;;;2.20;;
45041;SDS011;30779;52.096;4.410;2022-07-23T16:17:28;4.05;;;2.28;;
45041;SDS011;30779;52.096;4.410;2022-07-23T16:20:29;2.80;;;2.20;;
45041;SDS011;30779;52.096;4.410;2022-07-23T16:23:30;3.50;;;1.90;;
45041;SDS011;30779;52.096;4.410;2022-07-23T16:26:32;2.60;;;2.10;;
45041;SDS011;30779;52.096;4.410;2022-07-23T16:29:33;3.65;;;1.83;;
45041;SDS011;30779;52.096;4.410;2022-07-23T16:32:34;3.03;;;1.73;;
45041;SDS011;30779;52.096;4.410;2022-07-23T16:35:35;4.05;;;2.17;;
45041;SDS011;30779;52.096;4.410;2022-07-23T16:38:36;2.92;;;1.92;;
45041;SDS011;30779;52.096;4.410;2022-07-23T16:41:37;4.32;;;1.98;;
45041;SDS011;30779;52.096;4.410;2022-07-23T16:44:38;3.83;;;2.47;;
45041;SDS011;30779;52.096;4.410;2022-07-23T16:47:38;2.58;;;2.08;;
45041;SDS011;30779;52.096;4.410;2022-07-23T16:50:39;2.70;;;1.75;;
45041;SDS011;30779;52.096;4.410;2022-07-23T16:53:39;4.22;;;2.10;;
45041;SDS011;30779;52.096;4.410;2022-07-23T16:56:40;3.05;;;2.40;;
45041;SDS011;30779;52.096;4.410;2022-07-23T16:59:41;4.65;;;2.13;;
45041;SDS011;30779;52.096;4.410;2022-07-23T17:02:41;2.83;;;2.00;;
45041;SDS011;30779;52.096;4.410;2022-07-23T17:05:43;4.07;;;1.98;;
45041;SDS011;30779;52.096;4.410;2022-07-23T17:08:44;3.83;;;2.22;;
45041;SDS011;30779;52.096;4.410;2022-07-23T17:11:45;3.88;;;2.30;;
45041;SDS011;30779;52.096;4.410;2022-07-23T17:14:45;3.35;;;2.15;;
45041;SDS011;30779;52.096;4.410;2022-07-23T17:17:46;5.85;;;3.15;;
45041;SDS011;30779;52.096;4.410;2022-07-23T17:20:47;4.75;;;2.58;;
45041;SDS011;30779;52.096;4.410;2022-07-23T17:23:48;2.50;;;2.30;;
45041;SDS011;30779;52.096;4.410;2022-07-23T17:26:49;4.03;;;2.63;;
45041;SDS011;30779;52.096;4.410;2022-07-23T17:29:49;2.42;;;2.22;;
45041;SDS011;30779;52.096;4.410;2022-07-23T17:32:50;4.03;;;2.60;;
45041;SDS011;30779;52.096;4.410;2022-07-23T17:35:50;3.38;;;2.65;;
45041;SDS011;30779;52.096;4.410;2022-07-23T17:38:54;3.83;;;2.83;;
45041;SDS011;30779;52.096;4.410;2022-07-23T17:41:55;3.08;;;2.40;;
45041;SDS011;30779;52.096;4.410;2022-07-23T17:44:56;4.03;;;2.60;;
45041;SDS011;30779;52.096;4.410;2022-07-23T17:47:56;4.45;;;2.80;;
45041;SDS011;30779;52.096;4.410;2022-07-23T17:50:57;4.72;;;3.65;;
45041;SDS011;30779;52.096;4.410;2022-07-23T17:53:58;4.70;;;4.20;;
45041;SDS011;30779;52.096;4.410;2022-07-23T17:56:58;6.88;;;5.55;;
45041;SDS011;30779;52.096;4.410;2022-07-23T17:59:59;4.43;;;3.20;;
45041;SDS011;30779;52.096;4.410;2022-07-23T18:03:00;5.35;;;4.05;;
45041;SDS011;30779;52.096;4.410;2022-07-23T18:06:01;5.65;;;4.68;;
45041;SDS011;30779;52.096;4.410;2022-07-23T18:09:02;6.38;;;4.40;;
45041;SDS011;30779;52.096;4.410;2022-07-23T18:12:03;4.72;;;3.83;;
45041;SDS011;30779;52.096;4.410;2022-07-23T18:15:04;6.22;;;4.20;;
45041;SDS011;30779;52.096;4.410;2022-07-23T18:18:06;5.00;;;3.25;;
45041;SDS011;30779;52.096;4.410;2022-07-23T18:21:06;5.53;;;3.70;;
45041;SDS011;30779;52.096;4.410;2022-07-23T18:24:07;6.45;;;4.18;;
45041;SDS011;30779;52.096;4.410;2022-07-23T18:27:08;7.10;;;3.78;;
45041;SDS011;30779;52.096;4.410;2022-07-23T18:30:10;5.67;;;4.17;;
45041;SDS011;30779;52.096;4.410;2022-07-23T18:33:11;4.40;;;3.67;;
45041;SDS011;30779;52.096;4.410;2022-07-23T18:36:13;5.55;;;3.83;;
45041;SDS011;30779;52.096;4.410;2022-07-23T18:39:14;4.43;;;3.33;;
45041;SDS011;30779;52.096;4.410;2022-07-23T18:42:14;5.03;;;3.30;;
45041;SDS011;30779;52.096;4.410;2022-07-23T18:45:16;6.60;;;3.50;;
45041;SDS011;30779;52.096;4.410;2022-07-23T18:48:16;5.70;;;3.38;;
45041;SDS011;30779;52.096;4.410;2022-07-23T18:51:17;3.78;;;3.40;;
45041;SDS011;30779;52.096;4.410;2022-07-23T18:54:18;4.78;;;3.33;;